Time;durP1;ratioP1;P1;durP2;ratioP2;P2;SDS_P1;SDS_P2;PMS_P1;PMS_P2;Temp;Humidity;BMP_temperature;BMP_pressure;BME280_temperature;BME280_humidity;BME280_pressure;Samples;Min_cycle;Max_cycle;Signal;HPM_P1;HPM_P2
2021/04/28 00:02:45;;;;;;;40.10;11.65;;;;;;;-0.22;55.37;98744.42;2161289;82;21289;-75
2021/04/28 00:05:47;;;;;;;34.75;10.88;;;;;;;-0.27;55.21;98744.97;2161060;82;21148;-77
2021/04/28 00:08:49;;;;;;;32.28;9.85;;;;;;;-0.22;54.84;98743.14;2140293;82;21257;-77
2021/04/28 00:11:51;;;;;;;29.80;10.20;;;;;;;-0.16;54.83;98737.86;2161023;82;21143;-77
2021/04/28 00:14:53;;;;;;;31.55;10.30;;;;;;;-0.10;54.99;98736.89;2161392;82;21274;-76
2021/04/28 00:17:55;;;;;;;38.98;14.03;;;;;;;-0.02;54.89;98738.44;2161109;82;21262;-76
2021/04/28 00:20:57;;;;;;;27.07;9.38;;;;;;;0.02;55.16;98740.53;2161027;82;21595;-72
2021/04/28 00:23:59;;;;;;;27.45;9.55;;;;;;;0.07;55.66;98735.28;2161059;82;21131;-73
2021/04/28 00:27:01;;;;;;;29.20;10.18;;;;;;;0.13;56.40;98733.86;2161017;82;21147;-77
2021/04/28 00:30:02;;;;;;;31.10;10.78;;;;;;;0.17;55.11;98732.92;2173576;81;21694;-73
2021/04/28 00:33:05;;;;;;;32.05;10.58;;;;;;;0.28;55.38;98730.13;2178432;81;21324;-73
2021/04/28 00:36:07;;;;;;;36.63;11.48;;;;;;;0.33;54.90;98729.58;2178747;81;21293;-76
2021/04/28 00:39:08;;;;;;;37.25;12.35;;;;;;;0.42;54.68;98725.98;2178709;81;21300;-75
2021/04/28 00:42:10;;;;;;;47.60;16.82;;;;;;;0.49;55.22;98723.68;2178729;81;21150;-77
2021/04/28 00:45:12;;;;;;;32.53;11.30;;;;;;;0.50;54.60;98722.35;2178773;81;21261;-73
2021/04/28 00:48:14;;;;;;;29.42;9.43;;;;;;;0.54;54.62;98718.41;2178697;82;21296;-77
2021/04/28 00:51:16;;;;;;;28.95;10.28;;;;;;;0.56;54.94;98721.37;2178904;81;21268;-73
2021/04/28 00:54:18;;;;;;;26.85;9.08;;;;;;;0.60;54.82;98719.55;2178645;81;21736;-73
2021/04/28 00:57:20;;;;;;;28.05;9.68;;;;;;;0.61;54.53;98725.97;2178952;81;21179;-76
2021/04/28 01:00:22;;;;;;;32.15;11.73;;;;;;;0.64;54.59;98722.03;2178796;81;21697;-77
2021/04/28 01:03:26;;;;;;;37.98;13.53;;;;;;;0.75;55.54;98724.38;2178675;81;21304;-73
2021/04/28 01:06:28;;;;;;;39.05;13.40;;;;;;;0.72;54.46;98718.42;2178536;81;21289;-72
2021/04/28 01:09:30;;;;;;;39.53;13.65;;;;;;;0.71;54.50;98721.91;2178943;81;21170;-73
2021/04/28 01:12:32;;;;;;;37.45;13.38;;;;;;;0.73;54.58;98719.67;2178954;81;21158;-73
2021/04/28 01:15:34;;;;;;;35.65;12.35;;;;;;;0.75;55.29;98719.22;2178637;81;21285;-73
2021/04/28 01:18:36;;;;;;;43.58;14.98;;;;;;;0.74;54.80;98716.22;2178681;81;21540;-73
2021/04/28 01:21:38;;;;;;;36.45;12.80;;;;;;;0.73;54.73;98717.09;2178652;81;21288;-77
2021/04/28 01:24:40;;;;;;;36.23;12.47;;;;;;;0.69;54.62;98709.88;2178805;81;21150;-72
2021/04/28 01:27:42;;;;;;;38.28;12.47;;;;;;;0.68;54.58;98709.46;2178712;81;21710;-72
2021/04/28 01:30:44;;;;;;;34.83;12.82;;;;;;;0.72;55.34;98706.80;2178565;81;21292;-73
2021/04/28 01:33:46;;;;;;;36.45;12.78;;;;;;;0.69;54.72;98700.84;2178593;81;21273;-73
2021/04/28 01:36:48;;;;;;;33.88;11.73;;;;;;;0.67;54.70;98708.20;2178570;81;21581;-73
2021/04/28 01:39:49;;;;;;;34.78;10.72;;;;;;;0.65;54.87;98713.86;2178597;81;21332;-72
2021/04/28 01:42:52;;;;;;;33.75;12.37;;;;;;;0.61;55.06;98711.77;2178615;81;21274;-73
2021/04/28 01:45:53;;;;;;;34.88;12.25;;;;;;;0.61;55.27;98707.06;2178583;82;21130;-73
2021/04/28 01:48:55;;;;;;;32.95;11.97;;;;;;;0.59;55.00;98697.20;2178561;81;21740;-73
2021/04/28 01:51:58;;;;;;;33.50;12.07;;;;;;;0.58;54.71;98702.81;2178553;82;21308;-73
2021/04/28 01:55:00;;;;;;;33.53;12.05;;;;;;;0.55;54.55;98704.59;2178565;81;21296;-77
2021/04/28 01:58:02;;;;;;;39.13;12.65;;;;;;;0.59;54.53;98701.94;2178792;81;21281;-77
2021/04/28 02:01:04;;;;;;;36.55;11.78;;;;;;;0.58;54.56;98699.39;2178581;81;21305;-73
2021/04/28 02:04:06;;;;;;;33.78;10.98;;;;;;;0.54;54.90;98699.89;2178668;81;21305;-76
2021/04/28 02:07:08;;;;;;;38.35;12.85;;;;;;;0.52;54.74;98693.92;2178637;82;21288;-75
2021/04/28 02:10:10;;;;;;;35.33;12.43;;;;;;;0.47;55.22;98690.13;2178557;81;21130;-72
2021/04/28 02:13:12;;;;;;;;;;;;;;;0.42;55.11;98685.98;2153243;82;21280;-73
2021/04/28 02:16:14;;;;;;;35.40;11.45;;;;;;;0.44;55.10;98689.37;2178411;82;20155;-76
2021/04/28 02:19:17;;;;;;;34.70;10.85;;;;;;;0.47;55.15;98690.59;2178542;82;21272;-73
2021/04/28 02:22:18;;;;;;;30.05;10.18;;;;;;;0.47;55.10;98687.55;2178523;81;21300;-77
2021/04/28 02:25:21;;;;;;;35.13;10.85;;;;;;;0.46;55.21;98682.42;2178550;81;21579;-73
2021/04/28 02:28:23;;;;;;;29.50;9.63;;;;;;;0.47;55.29;98690.13;2178467;81;21245;-73
2021/04/28 02:31:25;;;;;;;29.12;9.33;;;;;;;0.48;55.43;98687.97;2161163;82;21175;-77
2021/04/28 02:34:26;;;;;;;27.62;9.53;;;;;;;0.50;55.44;98684.93;2161124;82;21151;-73
2021/04/28 02:37:28;;;;;;;27.80;9.48;;;;;;;0.53;55.33;98681.41;2161110;82;21602;-74
2021/04/28 02:40:30;;;;;;;27.52;9.63;;;;;;;0.55;55.66;98680.08;2161147;82;21143;-77
2021/04/28 02:43:32;;;;;;;26.68;9.63;;;;;;;0.56;55.31;98676.20;2161135;82;21131;-77
2021/04/28 02:46:34;;;;;;;30.00;10.45;;;;;;;0.54;55.65;98671.95;2161161;82;21758;-73
2021/04/28 02:49:36;;;;;;;32.42;11.18;;;;;;;0.52;55.37;98681.02;2161455;82;21297;-73
2021/04/28 02:52:38;;;;;;;35.28;12.78;;;;;;;0.51;55.34;98673.70;2161087;82;21183;-77
2021/04/28 02:55:41;;;;;;;35.52;11.97;;;;;;;0.52;55.29;98675.86;2140322;82;22718;-77
2021/04/28 02:58:43;;;;;;;31.27;10.58;;;;;;;0.54;55.94;98679.69;2161082;82;21150;-76
2021/04/28 03:01:45;;;;;;;26.30;9.68;;;;;;;0.49;55.33;98679.34;2161105;82;21155;-75
2021/04/28 03:04:47;;;;;;;32.75;9.38;;;;;;;0.45;55.34;98676.88;2140067;82;21729;-77
2021/04/28 03:07:49;;;;;;;27.05;9.25;;;;;;;0.43;55.37;98679.50;2161065;82;21112;-77
2021/04/28 03:10:51;;;;;;;28.87;10.53;;;;;;;0.42;55.60;98672.63;2161074;82;21622;-77
2021/04/28 03:13:53;;;;;;;34.65;12.13;;;;;;;0.37;55.68;98674.45;2161060;82;21187;-76
2021/04/28 03:16:55;;;;;;;35.35;12.70;;;;;;;0.37;55.47;98677.48;2140343;82;21285;-73
2021/04/28 03:19:57;;;;;;;34.92;13.03;;;;;;;0.38;55.76;98680.03;2161188;82;21265;-73
2021/04/28 03:22:59;;;;;;;33.48;11.83;;;;;;;0.37;56.37;98676.19;2161082;82;21615;-77
2021/04/28 03:26:01;;;;;;;28.77;10.28;;;;;;;0.40;55.80;98678.70;2161099;82;21123;-77
2021/04/28 03:29:03;;;;;;;30.17;10.28;;;;;;;0.41;55.75;98672.21;2163018;82;21163;-77
2021/04/28 03:32:05;;;;;;;28.30;10.43;;;;;;;0.42;55.91;98671.79;2178949;81;21289;-77
2021/04/28 03:35:06;;;;;;;28.17;9.65;;;;;;;0.42;55.90;98670.50;2178858;81;21312;-74
2021/04/28 03:38:08;;;;;;;32.08;9.98;;;;;;;0.45;55.97;98676.88;2178575;82;21285;-77
2021/04/28 03:41:10;;;;;;;27.87;9.95;;;;;;;0.50;55.67;98668.57;2178516;82;21284;-77
2021/04/28 03:44:12;;;;;;;33.83;11.57;;;;;;;0.59;55.69;98671.38;2178472;82;21281;-77
2021/04/28 03:47:14;;;;;;;39.05;13.38;;;;;;;0.66;55.73;98669.94;2178479;82;21582;-77
2021/04/28 03:50:17;;;;;;;36.68;13.50;;;;;;;0.66;55.52;98675.52;2178733;82;21288;-77
2021/04/28 03:53:19;;;;;;;34.20;11.83;;;;;;;0.72;55.65;98678.41;2178526;81;21292;-77
2021/04/28 03:56:21;;;;;;;37.88;13.10;;;;;;;0.78;55.95;98683.45;2150812;82;21272;-77
2021/04/28 03:59:23;;;;;;;38.75;14.53;;;;;;;0.86;55.43;98683.67;2178650;81;21717;-77
2021/04/28 04:02:25;;;;;;;36.73;12.82;;;;;;;1.02;55.50;98688.44;2178581;81;21305;-76
2021/04/28 04:05:27;;;;;;;35.35;11.97;;;;;;;1.16;55.32;98694.57;2178779;81;21269;-77
2021/04/28 04:08:29;;;;;;;38.28;14.33;;;;;;;1.42;55.11;98695.65;2178994;81;21273;-77
2021/04/28 04:11:31;;;;;;;43.33;14.87;;;;;;;1.55;54.77;98692.71;2178738;81;21285;-76
2021/04/28 04:14:33;;;;;;;36.85;12.68;;;;;;;1.69;54.60;98698.78;2150893;82;21320;-76
2021/04/28 04:17:35;;;;;;;38.58;12.70;;;;;;;1.88;54.40;98700.88;2178722;81;21285;-76
2021/04/28 04:20:37;;;;;;;39.33;13.75;;;;;;;2.13;54.11;98702.34;2178745;82;21313;-76
2021/04/28 04:23:39;;;;;;;36.65;12.55;;;;;;;2.36;53.66;98700.38;2178738;81;21277;-76
2021/04/28 04:26:41;;;;;;;35.20;12.43;;;;;;;2.62;53.38;98694.02;2178528;81;21137;-76
2021/04/28 04:29:44;;;;;;;29.15;10.45;;;;;;;2.84;53.07;98692.89;2178633;81;21277;-76
2021/04/28 04:32:46;;;;;;;26.80;10.15;;;;;;;3.06;52.86;98691.31;2179102;82;21301;-76
2021/04/28 04:35:48;;;;;;;30.32;10.20;;;;;;;3.30;52.38;98686.20;2178883;81;21590;-76
2021/04/28 04:38:50;;;;;;;26.77;9.68;;;;;;;3.50;52.20;98687.28;2178661;82;21728;-76
2021/04/28 04:41:52;;;;;;;29.77;10.72;;;;;;;3.70;51.73;98684.00;2178664;81;21138;-76
2021/04/28 04:44:54;;;;;;;30.10;10.68;;;;;;;3.87;51.68;98689.89;2178653;81;21297;-76
2021/04/28 04:47:56;;;;;;;26.77;9.58;;;;;;;4.01;51.18;98687.64;2150867;82;21264;-75
2021/04/28 04:50:58;;;;;;;27.55;9.73;;;;;;;4.22;51.26;98682.09;2178679;81;21145;-75
2021/04/28 04:54:00;;;;;;;26.33;9.60;;;;;;;4.43;50.54;98677.84;2178621;81;21729;-76
2021/04/28 04:57:02;;;;;;;26.70;10.25;;;;;;;4.59;50.18;98687.19;2151281;82;21272;-76
2021/04/28 05:00:05;;;;;;;27.10;9.48;;;;;;;4.71;50.17;98679.36;2178509;82;21729;-75
2021/04/28 05:03:07;;;;;;;26.40;9.20;;;;;;;4.89;49.86;98683.00;2178634;81;21328;-75
2021/04/28 05:06:09;;;;;;;27.37;9.03;;;;;;;5.09;49.38;98682.19;2178419;81;21701;-76
2021/04/28 05:09:11;;;;;;;26.15;9.58;;;;;;;5.24;49.02;98674.67;2178656;81;21272;-75
2021/04/28 05:12:14;;;;;;;26.48;9.50;;;;;;;5.47;48.70;98682.80;2178622;81;21118;-76
2021/04/28 05:15:16;;;;;;;27.70;9.88;;;;;;;5.64;48.76;98670.38;2178859;81;21154;-76
2021/04/28 05:18:18;;;;;;;28.30;10.28;;;;;;;5.88;47.27;98673.67;2178613;81;21292;-75
2021/04/28 05:21:20;;;;;;;24.63;8.40;;;;;;;6.03;48.51;98672.16;2178706;81;21713;-75
2021/04/28 05:24:22;;;;;;;29.02;9.18;;;;;;;6.32;47.70;98678.67;2178641;81;21281;-75
2021/04/28 05:27:26;;;;;;;26.02;9.38;;;;;;;6.53;47.38;98681.19;2178598;81;21807;-75
2021/04/28 05:30:28;;;;;;;24.20;8.90;;;;;;;6.71;47.25;98675.11;2178409;81;21327;-75
2021/04/28 05:33:30;;;;;;;23.80;8.45;;;;;;;6.93;46.42;98683.20;2178548;81;21273;-75
2021/04/28 05:36:32;;;;;;;24.02;8.38;;;;;;;7.10;45.72;98675.87;2178597;81;21713;-75
2021/04/28 05:39:34;;;;;;;25.65;8.63;;;;;;;7.19;44.25;98677.17;2179079;81;21170;-75
2021/04/28 05:42:36;;;;;;;24.52;8.28;;;;;;;7.25;44.08;98679.00;2178682;82;21272;-75
2021/04/28 05:45:44;;;;;;;31.57;9.75;;;;;;;7.33;44.13;98679.94;2178691;81;21705;-74
2021/04/28 05:48:47;;;;;;;27.48;8.83;;;;;;;7.54;44.03;98681.08;2178440;81;21284;-75
2021/04/28 05:51:49;;;;;;;26.62;8.78;;;;;;;7.85;44.45;98684.27;2178445;81;21284;-74
2021/04/28 05:54:51;;;;;;;22.67;7.65;;;;;;;8.20;43.89;98680.72;2150618;82;21265;-74
2021/04/28 05:57:53;;;;;;;26.05;7.55;;;;;;;8.41;43.69;98678.72;2178548;81;21301;-75
2021/04/28 06:00:55;;;;;;;25.02;8.05;;;;;;;8.61;42.61;98685.50;2178641;82;21286;-75
2021/04/28 06:03:57;;;;;;;23.60;7.80;;;;;;;8.81;42.20;98685.70;2178597;81;21713;-74
2021/04/28 06:06:59;;;;;;;23.67;7.70;;;;;;;8.99;42.21;98691.66;2178681;81;21697;-74
2021/04/28 06:10:01;;;;;;;23.05;7.90;;;;;;;9.06;40.05;98685.62;2178593;82;21305;-74
2021/04/28 06:13:03;;;;;;;26.10;7.95;;;;;;;9.16;41.60;98692.02;2178537;81;21154;-74
2021/04/28 06:16:05;;;;;;;26.17;7.83;;;;;;;9.25;40.58;98687.58;2178643;81;21717;-74
2021/04/28 06:19:07;;;;;;;25.45;7.90;;;;;;;9.44;40.76;98686.48;2178919;81;21142;-74
2021/04/28 06:22:09;;;;;;;26.62;7.60;;;;;;;9.55;39.83;98681.45;2178585;81;21285;-74
2021/04/28 06:25:11;;;;;;;24.23;8.10;;;;;;;9.65;39.57;98680.45;2178687;81;21701;-74
2021/04/28 06:28:13;;;;;;;26.20;8.33;;;;;;;9.69;39.21;98673.63;2178623;81;21285;-74
2021/04/28 06:31:15;;;;;;;25.48;8.50;;;;;;;9.80;38.39;98665.61;2178468;81;21279;-74
2021/04/28 06:34:17;;;;;;;23.80;7.80;;;;;;;9.86;39.34;98671.78;2178530;81;21288;-74
2021/04/28 06:37:20;;;;;;;26.30;7.92;;;;;;;9.88;37.80;98676.45;2178526;81;21737;-74
2021/04/28 06:40:24;;;;;;;24.47;8.03;;;;;;;10.02;37.61;98682.17;2178548;82;21276;-74
2021/04/28 06:43:25;;;;;;;26.30;8.00;;;;;;;10.22;38.54;98669.98;2178451;81;21717;-74
2021/04/28 06:46:28;;;;;;;27.50;8.80;;;;;;;10.45;37.76;98669.53;2178527;81;21586;-74
2021/04/28 06:49:29;;;;;;;24.60;7.80;;;;;;;10.50;37.03;98669.62;2178558;81;21289;-74
2021/04/28 06:52:31;;;;;;;22.62;7.30;;;;;;;10.53;36.75;98669.87;2178523;81;21288;-74
2021/04/28 06:55:34;;;;;;;23.18;6.80;;;;;;;10.64;37.35;98671.83;2178479;81;21749;-74
2021/04/28 06:58:36;;;;;;;24.00;7.05;;;;;;;10.82;37.61;98671.09;2178362;81;21300;-74
2021/04/28 07:01:38;;;;;;;22.58;7.55;;;;;;;11.04;37.04;98666.14;2178524;81;21289;-74
2021/04/28 07:04:40;;;;;;;21.40;6.72;;;;;;;11.26;36.72;98671.30;2178651;81;21269;-73
2021/04/28 07:07:43;;;;;;;22.95;6.55;;;;;;;11.43;36.88;98664.47;2178514;81;21123;-74
2021/04/28 07:10:45;;;;;;;23.00;7.53;;;;;;;11.62;36.12;98659.26;2178745;82;21320;-73
2021/04/28 07:13:47;;;;;;;22.13;6.78;;;;;;;11.90;36.42;98662.16;2178463;81;21296;-74
2021/04/28 07:16:49;;;;;;;20.50;5.92;;;;;;;12.25;34.88;98655.42;2178694;81;21701;-81
2021/04/28 07:19:52;;;;;;;22.00;5.97;;;;;;;12.33;33.10;98649.16;2178505;81;21135;-74
2021/04/28 07:22:54;;;;;;;18.77;5.35;;;;;;;12.39;35.15;98661.03;2150704;82;21288;-74
2021/04/28 07:25:56;;;;;;;18.07;5.10;;;;;;;12.60;33.67;98666.06;2178460;81;21253;-74
2021/04/28 07:28:58;;;;;;;16.73;5.08;;;;;;;12.64;32.72;98665.36;2178505;81;21276;-73
2021/04/28 07:32:02;;;;;;;19.60;5.25;;;;;;;12.67;32.37;98668.25;2178267;81;21292;-74
2021/04/28 07:35:04;;;;;;;18.95;6.15;;;;;;;12.69;33.20;98663.73;2178371;81;21304;-73
2021/04/28 07:38:06;;;;;;;18.57;4.85;;;;;;;12.85;32.16;98659.51;2178833;81;21328;-74
2021/04/28 07:41:09;;;;;;;16.12;5.22;;;;;;;12.92;31.07;98658.11;2178353;81;21273;-75
2021/04/28 07:44:11;;;;;;;17.50;5.10;;;;;;;12.91;30.67;98655.93;2178477;81;21268;-74
2021/04/28 07:47:12;;;;;;;17.50;5.10;;;;;;;13.10;30.30;98661.16;2178520;81;21852;-74
2021/04/28 07:50:15;;;;;;;16.97;4.95;;;;;;;13.20;31.72;98663.47;2178502;81;21756;-74
2021/04/28 07:53:17;;;;;;;16.75;4.75;;;;;;;13.31;30.80;98659.56;2178922;82;21344;-74
2021/04/28 07:56:19;;;;;;;;;;;;;;;13.37;30.18;98655.66;2180913;81;21752;-74
2021/04/28 07:59:21;;;;;;;20.83;5.07;;;;;;;13.51;30.26;98654.63;2178559;82;20228;-73
2021/04/28 08:02:23;;;;;;;;;;;;;;;13.61;29.67;98653.45;2180938;82;21724;-74
2021/04/28 08:05:25;;;;;;;20.43;5.00;;;;;;;13.71;29.85;98654.91;2178624;82;20224;-74
2021/04/28 08:08:28;;;;;;;17.73;5.30;;;;;;;13.76;30.22;98649.63;2150637;82;21724;-74
2021/04/28 08:11:30;;;;;;;19.62;5.03;;;;;;;13.87;29.35;98646.17;2178833;81;21280;-74
2021/04/28 08:14:32;;;;;;;17.37;5.20;;;;;;;13.91;29.51;98651.57;2178461;81;21297;-74
2021/04/28 08:17:34;;;;;;;15.53;5.03;;;;;;;14.01;29.69;98650.38;2150555;82;21583;-74
2021/04/28 08:20:38;;;;;;;17.80;4.83;;;;;;;14.20;29.57;98644.00;2178588;81;21284;-74
2021/04/28 08:23:42;;;;;;;16.40;4.80;;;;;;;14.33;29.41;98643.05;2178577;82;21570;-74
2021/04/28 08:26:44;;;;;;;18.27;5.10;;;;;;;14.45;28.99;98640.76;2178299;81;21304;-74
2021/04/28 08:29:47;;;;;;;;;;;;;;;14.59;29.87;98638.80;2181175;81;21305;-74
2021/04/28 08:32:49;;;;;;;19.17;5.90;;;;;;;14.81;29.48;98642.73;2178365;81;20232;-74
2021/04/28 08:35:51;;;;;;;16.55;5.42;;;;;;;14.95;29.04;98631.52;2178423;81;21272;-74
2021/04/28 08:38:53;;;;;;;19.77;5.97;;;;;;;15.08;29.76;98634.81;2178587;81;21307;-74
2021/04/28 08:41:55;;;;;;;18.00;5.50;;;;;;;15.28;29.08;98629.69;2178439;82;21284;-74
2021/04/28 08:44:57;;;;;;;18.82;5.50;;;;;;;15.51;28.98;98632.55;2178410;81;21280;-74
2021/04/28 08:47:59;;;;;;;16.90;4.80;;;;;;;15.67;28.97;98628.61;2178532;82;21717;-74
2021/04/28 08:51:01;;;;;;;16.37;4.72;;;;;;;15.93;29.26;98620.64;2178962;81;21146;-73
2021/04/28 08:54:03;;;;;;;14.65;4.78;;;;;;;16.05;28.29;98625.34;2178425;81;21301;-74
2021/04/28 08:57:05;;;;;;;16.67;4.83;;;;;;;16.17;28.28;98619.95;2178671;82;21765;-75
2021/04/28 09:00:07;;;;;;;18.35;5.03;;;;;;;16.35;28.38;98611.73;2150772;82;21284;-74
2021/04/28 09:03:09;;;;;;;17.67;5.50;;;;;;;16.50;28.37;98608.69;2178844;81;21590;-74
2021/04/28 09:06:13;;;;;;;23.25;6.80;;;;;;;16.61;27.75;98602.78;2178629;81;21705;-74
2021/04/28 09:09:15;;;;;;;18.70;5.47;;;;;;;16.59;27.89;98602.56;2178565;82;21712;-73
2021/04/28 09:12:17;;;;;;;19.07;5.58;;;;;;;16.74;27.06;98602.52;2178537;82;21321;-74
2021/04/28 09:15:19;;;;;;;18.70;5.45;;;;;;;16.62;27.63;98602.28;2178606;81;21261;-74
2021/04/28 09:18:21;;;;;;;16.07;4.80;;;;;;;16.77;27.94;98596.11;2178678;81;21134;-74
2021/04/28 09:21:23;;;;;;;17.70;5.08;;;;;;;16.92;26.75;98593.44;2178481;81;21717;-74
2021/04/28 09:24:25;;;;;;;15.60;4.55;;;;;;;17.06;27.07;98594.80;2178946;81;21143;-74
2021/04/28 09:27:27;;;;;;;;;;;;;;;17.05;27.49;98598.45;2181526;81;21280;-74
2021/04/28 09:30:31;;;;;;;16.07;4.83;;;;;;;17.18;27.73;98588.86;2176731;81;20145;-74
2021/04/28 09:33:33;;;;;;;16.07;4.60;;;;;;;17.40;25.80;98581.59;2161045;82;21139;-74
2021/04/28 09:36:37;;;;;;;16.48;4.80;;;;;;;17.70;26.63;98583.64;2161031;82;21116;-74
2021/04/28 09:39:39;;;;;;;15.80;4.62;;;;;;;17.90;27.40;98575.13;2161299;81;21285;-74
2021/04/28 09:42:41;;;;;;;17.50;4.92;;;;;;;17.95;25.88;98576.89;2161048;82;21761;-74
2021/04/28 09:45:43;;;;;;;18.17;5.30;;;;;;;17.84;24.74;98565.46;2161149;82;21563;-74
2021/04/28 09:48:45;;;;;;;17.73;5.42;;;;;;;17.75;24.30;98560.19;2161192;82;21274;-74
2021/04/28 09:51:47;;;;;;;16.05;4.97;;;;;;;17.60;26.41;98558.52;2161195;82;21140;-74
2021/04/28 09:54:49;;;;;;;17.67;5.55;;;;;;;17.62;25.36;98559.19;2161257;82;21721;-74
2021/04/28 09:57:52;;;;;;;;;;;;;;;17.73;25.59;98555.03;2163725;82;21163;-74
2021/04/28 10:00:55;;;;;;;19.02;5.33;;;;;;;17.95;26.05;98556.48;2161398;82;20265;-74
2021/04/28 10:03:57;;;;;;;24.12;6.08;;;;;;;17.99;26.05;98552.56;2161170;82;21277;-74
2021/04/28 10:07:00;;;;;;;17.95;5.47;;;;;;;18.14;26.26;98546.76;2161045;82;21591;-74
2021/04/28 10:10:02;;;;;;;16.15;4.85;;;;;;;18.42;26.27;98548.03;2161184;82;21131;-74
2021/04/28 10:13:03;;;;;;;18.95;5.10;;;;;;;18.47;25.76;98546.60;2140089;82;21300;-74
2021/04/28 10:16:05;;;;;;;17.77;5.05;;;;;;;18.55;25.66;98546.34;2161136;82;21594;-74
2021/04/28 10:19:09;;;;;;;18.80;5.40;;;;;;;18.68;25.68;98546.31;2161032;82;21108;-74
2021/04/28 10:22:11;;;;;;;18.80;5.70;;;;;;;18.64;25.73;98546.77;2161165;82;21607;-74
2021/04/28 10:25:14;;;;;;;19.37;5.47;;;;;;;18.65;25.43;98541.30;2161146;82;21155;-74
2021/04/28 10:28:16;;;;;;;17.60;5.05;;;;;;;18.81;25.66;98530.48;2160979;82;21132;-74
2021/04/28 10:31:18;;;;;;;18.45;5.33;;;;;;;18.96;24.66;98532.13;2165844;82;21174;-80
2021/04/28 10:34:24;;;;;;;20.62;5.90;;;;;;;18.86;25.55;98530.84;2178533;81;21284;-80
2021/04/28 10:37:26;;;;;;;17.45;6.00;;;;;;;19.11;25.76;98527.10;2178588;81;21309;-75
2021/04/28 10:40:28;;;;;;;17.32;5.47;;;;;;;19.18;25.38;98528.15;2178381;81;21607;-74
2021/04/28 10:43:30;;;;;;;19.00;5.37;;;;;;;19.28;25.19;98514.73;2178404;81;21602;-74
2021/04/28 10:46:32;;;;;;;21.42;7.85;;;;;;;19.28;24.39;98514.73;2178526;81;21288;-74
2021/04/28 10:49:34;;;;;;;18.32;6.10;;;;;;;19.34;25.54;98518.93;2178532;82;21301;-74
2021/04/28 10:52:36;;;;;;;19.50;6.15;;;;;;;19.39;24.83;98510.48;2178505;81;21319;-74
2021/04/28 10:55:38;;;;;;;18.42;6.17;;;;;;;19.48;24.96;98506.88;2178487;81;21601;-74
2021/04/28 10:58:40;;;;;;;18.92;6.25;;;;;;;19.71;25.82;98496.52;2178881;81;21271;-74
2021/04/28 11:01:42;;;;;;;24.52;7.37;;;;;;;19.71;25.82;98496.52;2178397;82;21280;-74
2021/04/28 11:04:44;;;;;;;18.32;6.30;;;;;;;19.83;24.32;98498.92;2150714;82;21308;-74
2021/04/28 11:07:46;;;;;;;20.57;6.33;;;;;;;19.67;24.31;98499.16;2178381;81;21154;-74
2021/04/28 11:10:49;;;;;;;;;;;;;;;19.72;24.93;98494.20;2180978;81;21728;-74
2021/04/28 11:13:51;;;;;;;19.12;5.80;;;;;;;20.02;22.99;98485.83;2178316;82;20229;-74
2021/04/28 11:16:53;;;;;;;;;;;;;;;20.10;24.23;98479.69;2180954;81;21273;-75
2021/04/28 11:19:55;;;;;;;15.72;5.30;;;;;;;20.06;23.84;98478.69;2178492;82;20237;-74
2021/04/28 11:22:57;;;;;;;17.87;5.30;;;;;;;19.99;24.83;98476.34;2178382;81;21280;-74
2021/04/28 11:25:59;;;;;;;17.20;5.33;;;;;;;20.10;23.80;98479.20;2178577;81;21750;-74
2021/04/28 11:29:01;;;;;;;17.12;5.42;;;;;;;20.16;24.19;98474.55;2178846;81;21300;-80
2021/04/28 11:32:04;;;;;;;16.90;5.50;;;;;;;20.18;23.70;98475.72;2178663;81;21289;-74
2021/04/28 11:35:07;;;;;;;15.80;5.37;;;;;;;20.15;23.07;98466.73;2178338;81;21764;-74
2021/04/28 11:38:09;;;;;;;14.13;5.10;;;;;;;20.11;23.64;98461.39;2150591;82;21733;-74
2021/04/28 11:41:12;;;;;;;17.67;5.60;;;;;;;20.08;22.28;98462.55;2178385;81;21277;-74
2021/04/28 11:44:14;;;;;;;17.60;5.72;;;;;;;20.16;23.21;98460.42;2178380;81;21725;-74
2021/04/28 11:47:16;;;;;;;;;;;;;;;20.38;23.30;98455.76;2181156;81;21149;-74
2021/04/28 11:50:18;;;;;;;17.40;5.25;;;;;;;20.46;22.71;98450.10;2178468;82;20221;-74
2021/04/28 11:53:20;;;;;;;19.05;5.92;;;;;;;20.51;23.23;98441.95;2178482;81;21288;-75
2021/04/28 11:56:22;;;;;;;;;;;;;;;20.56;23.16;98447.63;2180934;81;21272;-74
2021/04/28 11:59:25;;;;;;;17.95;5.28;;;;;;;20.67;22.52;98445.13;2178504;82;20276;-74
2021/04/28 12:02:27;;;;;;;18.30;5.53;;;;;;;20.70;22.86;98436.83;2178350;81;21740;-75
2021/04/28 12:05:29;;;;;;;;;;;;;;;20.74;22.89;98423.98;2181018;81;21693;-75
2021/04/28 12:08:32;;;;;;;16.70;5.12;;;;;;;20.67;22.79;98426.48;2178471;82;20519;-75
2021/04/28 12:11:34;;;;;;;;;;;;;;;20.62;22.43;98431.47;2180962;81;21285;-74
2021/04/28 12:14:36;;;;;;;17.00;5.30;;;;;;;20.68;22.33;98428.16;2178837;82;20493;-75
2021/04/28 12:17:38;;;;;;;;;;;;;;;20.65;22.15;98423.14;2180927;82;21749;-75
2021/04/28 12:20:41;;;;;;;18.90;4.95;;;;;;;20.84;21.98;98417.97;2178792;82;20244;-74
2021/04/28 12:23:43;;;;;;;16.80;4.90;;;;;;;21.10;21.29;98420.91;2178374;82;21281;-74
2021/04/28 12:26:45;;;;;;;;;;;;;;;21.14;20.60;98417.42;2180858;81;21313;-75
2021/04/28 12:29:47;;;;;;;17.48;5.03;;;;;;;21.19;21.07;98415.05;2178889;82;20241;-75
2021/04/28 12:32:49;;;;;;;;;;;;;;;21.18;21.30;98408.08;2181045;81;21292;-74
2021/04/28 12:35:51;;;;;;;;;;;;;;;21.22;21.35;98414.22;2181126;82;20137;-74
2021/04/28 12:38:53;;;;;;;16.15;5.08;;;;;;;21.15;20.06;98403.06;2150756;82;20225;-75
2021/04/28 12:41:55;;;;;;;;;;;;;;;20.93;21.72;98389.47;2181121;81;21601;-74
2021/04/28 12:44:57;;;;;;;19.32;5.40;;;;;;;20.77;20.93;98402.33;2178622;82;20225;-75
2021/04/28 12:47:59;;;;;;;20.65;5.40;;;;;;;20.51;22.36;98395.33;2178742;81;21292;-75
2021/04/28 12:51:01;;;;;;;17.40;5.30;;;;;;;20.35;21.61;98388.70;2178757;81;21158;-75
2021/04/28 12:54:03;;;;;;;16.82;5.85;;;;;;;20.49;22.38;98385.87;2150650;82;21717;-74
2021/04/28 12:57:05;;;;;;;;;;;;;;;20.73;22.36;98388.52;2181085;81;21284;-75
2021/04/28 13:00:07;;;;;;;17.62;5.80;;;;;;;21.04;21.46;98389.10;2178870;82;20231;-75
2021/04/28 13:03:10;;;;;;;17.70;5.90;;;;;;;21.23;22.04;98391.05;2178508;81;21280;-74
2021/04/28 13:06:12;;;;;;;;;;;;;;;21.37;22.26;98376.98;2181089;81;21268;-74
2021/04/28 13:09:15;;;;;;;17.60;5.45;;;;;;;21.54;21.85;98380.44;2150660;82;20252;-74
2021/04/28 13:12:17;;;;;;;;;;;;;;;21.45;20.66;98376.13;2181106;81;21261;-75
2021/04/28 13:15:19;;;;;;;15.95;5.35;;;;;;;21.37;20.96;98370.83;2178680;82;20497;-74
2021/04/28 13:18:21;;;;;;;;;;;;;;;21.34;21.31;98377.84;2181054;81;21276;-75
2021/04/28 13:21:23;;;;;;;20.88;5.80;;;;;;;21.51;21.45;98363.45;2178575;82;20229;-75
2021/04/28 13:24:25;;;;;;;16.37;4.72;;;;;;;21.54;21.13;98364.95;2178579;81;21277;-75
2021/04/28 13:27:27;;;;;;;;;;;;;;;21.61;20.97;98368.57;2181052;82;21727;-75
2021/04/28 13:30:29;;;;;;;16.73;5.35;;;;;;;21.86;21.45;98359.89;2178608;82;20225;-75
2021/04/28 13:33:31;;;;;;;18.70;5.45;;;;;;;21.78;19.19;98355.97;2165117;81;21725;-75
2021/04/28 13:36:33;;;;;;;;;;;;;;;21.38;21.26;98353.83;2163710;82;21706;-74
2021/04/28 13:39:37;;;;;;;18.05;5.40;;;;;;;21.41;21.25;98349.47;2140286;82;20222;-75
2021/04/28 13:42:39;;;;;;;17.55;5.53;;;;;;;21.48;21.13;98346.43;2161013;82;21305;-75
2021/04/28 13:45:41;;;;;;;17.80;5.42;;;;;;;21.43;20.91;98348.30;2161055;82;21108;-74
2021/04/28 13:48:44;;;;;;;;;;;;;;;21.44;20.94;98349.12;2163602;82;21590;-75
2021/04/28 13:51:46;;;;;;;17.40;5.20;;;;;;;21.59;21.68;98342.06;2140096;82;20233;-74
2021/04/28 13:54:48;;;;;;;19.60;5.40;;;;;;;21.74;20.96;98343.46;2140046;82;21748;-74
2021/04/28 13:57:50;;;;;;;;;;;;;;;21.78;20.85;98339.95;2163601;82;21111;-75
2021/04/28 14:00:52;;;;;;;21.07;6.30;;;;;;;21.74;19.64;98340.80;2161162;82;20230;-75
2021/04/28 14:03:54;;;;;;;;;;;;;;;21.73;20.94;98336.45;2163614;82;21163;-74
2021/04/28 14:06:56;;;;;;;19.45;5.95;;;;;;;21.70;20.53;98327.98;2161117;82;20122;-75
2021/04/28 14:09:58;;;;;;;15.90;5.47;;;;;;;21.63;21.06;98332.67;2161023;82;21188;-75
2021/04/28 14:13:00;;;;;;;;;;;;;;;21.70;20.46;98326.66;2163593;82;21163;-74
2021/04/28 14:16:02;;;;;;;17.20;5.62;;;;;;;21.58;21.51;98323.05;2161046;82;20139;-81
2021/04/28 14:19:05;;;;;;;20.80;6.28;;;;;;;21.66;20.97;98323.49;2161022;82;21709;-75